createdAt,value
2023-05-05T00:02:17.107Z,1.77
2023-05-05T00:04:46.188Z,1.73
2023-05-05T00:09:43.182Z,1.60
2023-05-05T00:12:09.790Z,2.05
2023-05-05T00:14:38.617Z,1.60
2023-05-05T00:17:05.314Z,1.85
2023-05-05T00:19:34.227Z,1.77
2023-05-05T00:22:01.040Z,1.70
2023-05-05T00:24:27.842Z,1.98
2023-05-05T00:26:56.825Z,1.80
2023-05-05T00:29:23.390Z,1.67
2023-05-05T00:31:53.410Z,2.10
2023-05-05T00:34:27.285Z,1.90
2023-05-05T00:36:54.032Z,1.60
2023-05-05T00:39:20.684Z,1.88
2023-05-05T00:41:54.739Z,1.80
2023-05-05T00:44:37.059Z,1.70
2023-05-05T00:47:06.555Z,1.50
2023-05-05T00:49:36.118Z,1.90
2023-05-05T00:52:04.225Z,2.05
2023-05-05T00:54:31.048Z,2.00
2023-05-05T00:57:00.347Z,1.42
2023-05-05T00:59:29.158Z,1.80
2023-05-05T01:01:58.259Z,1.73
2023-05-05T01:04:28.033Z,1.90
2023-05-05T01:07:08.871Z,1.80
2023-05-05T01:09:41.395Z,2.40
2023-05-05T01:12:20.040Z,1.95
2023-05-05T01:15:30.642Z,1.85
2023-05-05T01:18:17.425Z,1.70
2023-05-05T01:21:28.140Z,1.60
2023-05-05T01:23:57.301Z,1.60
2023-05-05T01:29:41.625Z,2.13
2023-05-05T01:32:12.956Z,1.73
2023-05-05T01:34:45.297Z,2.08
2023-05-05T01:37:13.787Z,2.20
2023-05-05T01:39:43.372Z,1.90
2023-05-05T01:42:15.164Z,1.95
2023-05-05T01:44:45.689Z,1.88
2023-05-05T01:47:16.231Z,2.28
2023-05-05T01:49:47.831Z,1.83
2023-05-05T01:52:18.418Z,2.10
2023-05-05T01:54:46.637Z,1.80
2023-05-05T01:57:14.810Z,1.67
2023-05-05T01:59:42.003Z,1.90
2023-05-05T02:02:11.293Z,1.65
2023-05-05T02:04:42.695Z,1.80
2023-05-05T02:07:12.769Z,1.80
2023-05-05T02:09:40.989Z,1.70
2023-05-05T02:12:11.055Z,2.10
2023-05-05T02:14:42.630Z,1.77
2023-05-05T02:17:10.072Z,2.00
2023-05-05T02:19:40.149Z,1.80
2023-05-05T02:22:07.270Z,2.10
2023-05-05T02:24:34.579Z,1.63
2023-05-05T02:27:06.324Z,2.05
2023-05-05T02:29:36.501Z,2.10
2023-05-05T02:32:09.540Z,2.08
2023-05-05T02:34:42.112Z,2.10
2023-05-05T02:37:18.024Z,1.73
2023-05-05T02:39:58.949Z,2.22
2023-05-05T02:42:32.242Z,1.65
2023-05-05T02:45:01.968Z,1.83
2023-05-05T02:47:37.865Z,2.10
2023-05-05T02:50:08.386Z,2.13
2023-05-05T02:52:38.124Z,2.10
2023-05-05T02:55:06.072Z,2.15
2023-05-05T02:57:51.525Z,2.08
2023-05-05T03:00:39.099Z,1.88
2023-05-05T03:05:49.821Z,2.00
2023-05-05T03:08:20.743Z,1.85
2023-05-05T03:10:57.591Z,2.28
2023-05-05T03:13:29.415Z,1.75
2023-05-05T03:15:58.644Z,1.95
2023-05-05T03:18:27.299Z,1.83
2023-05-05T03:20:54.652Z,2.50
2023-05-05T03:23:23.432Z,2.08
2023-05-05T03:25:50.295Z,2.03
2023-05-05T03:28:21.364Z,1.88
2023-05-05T03:30:50.597Z,1.95
2023-05-05T03:33:17.370Z,1.77
2023-05-05T03:35:46.477Z,1.80
2023-05-05T03:40:44.669Z,1.63
2023-05-05T03:43:14.339Z,2.08
2023-05-05T03:45:43.234Z,1.90
2023-05-05T03:48:12.267Z,1.90
2023-05-05T03:50:38.862Z,1.67
2023-05-05T03:53:07.990Z,1.58
2023-05-05T03:58:01.064Z,1.70
2023-05-05T04:00:30.085Z,1.80
2023-05-05T04:02:59.248Z,1.90
2023-05-05T04:05:26.288Z,2.13
2023-05-05T04:07:53.016Z,2.00
2023-05-05T04:10:19.626Z,2.08
2023-05-05T04:12:46.640Z,1.63
2023-05-05T04:15:13.344Z,1.92
2023-05-05T04:17:39.991Z,1.98
2023-05-05T04:20:07.416Z,1.92
2023-05-05T04:22:34.117Z,1.80
2023-05-05T04:25:01.271Z,2.17
2023-05-05T04:27:30.002Z,1.90
2023-05-05T04:29:59.516Z,2.00
2023-05-05T04:32:30.914Z,1.80
2023-05-05T04:35:00.052Z,2.15
2023-05-05T04:37:29.218Z,1.90
2023-05-05T04:39:55.801Z,2.08
2023-05-05T04:42:22.429Z,2.22
2023-05-05T04:44:51.249Z,1.95
2023-05-05T04:47:17.904Z,2.20
2023-05-05T04:49:45.234Z,1.88
2023-05-05T04:52:14.827Z,2.33
2023-05-05T04:54:41.426Z,2.40
2023-05-05T04:57:10.609Z,2.20
2023-05-05T04:59:37.398Z,2.10
2023-05-05T05:02:04.586Z,2.20
2023-05-05T05:07:57.152Z,2.53
2023-05-05T05:10:29.874Z,3.00
2023-05-05T05:12:56.528Z,2.53
2023-05-05T05:15:23.194Z,2.80
2023-05-05T05:17:55.278Z,2.22
2023-05-05T05:20:24.256Z,2.67
2023-05-05T05:22:50.978Z,2.22
2023-05-05T05:25:20.130Z,2.28
2023-05-05T05:27:50.166Z,2.53
2023-05-05T05:30:22.491Z,2.60
2023-05-05T05:36:38.760Z,2.10
2023-05-05T05:41:34.910Z,1.92
2023-05-05T05:47:49.043Z,2.42
2023-05-05T05:50:17.976Z,2.05
2023-05-05T05:52:44.624Z,2.28
2023-05-05T05:55:13.762Z,2.45
2023-05-05T05:57:40.701Z,2.70
2023-05-05T06:00:08.375Z,2.78
2023-05-05T06:02:37.794Z,2.85
2023-05-05T06:05:07.082Z,2.40
2023-05-05T06:07:33.661Z,2.47
2023-05-05T06:10:14.556Z,2.72
2023-05-05T06:12:53.788Z,2.58
2023-05-05T06:15:20.397Z,2.30
2023-05-05T06:17:46.986Z,1.85
2023-05-05T06:20:16.679Z,2.50
2023-05-05T06:22:45.980Z,2.92
2023-05-05T06:25:12.532Z,2.30
2023-05-05T06:27:39.107Z,2.10
2023-05-05T06:30:09.831Z,2.58
2023-05-05T06:32:41.347Z,1.90
2023-05-05T06:35:10.735Z,2.42
2023-05-05T06:37:39.945Z,2.55
2023-05-05T06:40:07.980Z,2.50
2023-05-05T06:42:35.994Z,2.53
2023-05-05T06:45:02.642Z,2.88
2023-05-05T06:47:29.291Z,2.50
2023-05-05T06:49:55.862Z,2.40
2023-05-05T06:52:25.163Z,2.80
2023-05-05T06:54:53.958Z,3.03
2023-05-05T06:57:22.793Z,2.50
2023-05-05T06:59:54.451Z,2.50
2023-05-05T07:02:21.026Z,2.40
2023-05-05T07:04:50.199Z,2.47
2023-05-05T07:07:19.080Z,2.38
2023-05-05T07:09:45.834Z,2.80
2023-05-05T07:12:14.711Z,2.80
2023-05-05T07:14:41.356Z,2.63
2023-05-05T07:17:07.928Z,2.13
2023-05-05T07:19:34.531Z,2.00
2023-05-05T07:22:01.211Z,2.65
2023-05-05T07:24:27.862Z,2.00
2023-05-05T07:26:55.733Z,2.13
2023-05-05T07:29:22.278Z,2.30
2023-05-05T07:31:49.035Z,2.60
2023-05-05T07:34:18.190Z,2.78
2023-05-05T07:36:44.867Z,3.15
2023-05-05T07:39:15.352Z,3.50
2023-05-05T07:41:44.798Z,2.67
2023-05-05T07:44:11.656Z,2.47
2023-05-05T07:46:40.599Z,2.92
2023-05-05T07:51:36.507Z,2.88
2023-05-05T07:54:05.842Z,2.47
2023-05-05T07:56:32.411Z,2.40
2023-05-05T07:59:01.570Z,2.63
2023-05-05T08:01:31.740Z,2.17
2023-05-05T08:04:00.915Z,2.65
2023-05-05T08:06:28.840Z,2.72
2023-05-05T08:08:55.736Z,2.70
2023-05-05T08:11:24.751Z,2.95
2023-05-05T08:13:51.593Z,3.20
2023-05-05T08:16:21.223Z,2.90
2023-05-05T08:18:48.038Z,2.83
2023-05-05T08:21:14.627Z,2.85
2023-05-05T08:23:41.198Z,2.80
2023-05-05T08:33:05.742Z,2.90
2023-05-05T08:35:32.340Z,3.15
2023-05-05T08:38:01.349Z,2.63
2023-05-05T08:40:36.538Z,2.78
2023-05-05T08:43:06.676Z,2.33
2023-05-05T08:45:33.453Z,2.83
2023-05-05T08:48:08.533Z,2.75
2023-05-05T08:50:42.150Z,2.95
2023-05-05T08:53:17.063Z,2.65
2023-05-05T08:58:28.831Z,2.92
2023-05-05T09:00:59.070Z,2.92
2023-05-05T09:03:29.548Z,2.72
2023-05-05T09:05:59.008Z,2.80
2023-05-05T09:08:29.398Z,3.08
2023-05-05T09:10:55.994Z,3.22
2023-05-05T09:13:25.371Z,3.40
2023-05-05T09:15:52.117Z,3.15
2023-05-05T09:18:18.738Z,3.20
2023-05-05T09:20:45.423Z,2.90
2023-05-05T09:23:12.920Z,2.83
2023-05-05T09:25:41.318Z,2.83
2023-05-05T09:28:12.179Z,3.10
2023-05-05T09:30:40.984Z,2.47
2023-05-05T09:35:52.436Z,2.63
2023-05-05T09:38:20.700Z,2.92
2023-05-05T09:40:52.442Z,2.92
2023-05-05T09:43:22.017Z,2.88
2023-05-05T09:45:51.691Z,3.22
2023-05-05T09:48:29.733Z,3.03
2023-05-05T09:50:57.538Z,2.95
2023-05-05T09:53:25.171Z,2.75
2023-05-05T09:55:59.199Z,3.13
2023-05-05T09:58:30.709Z,2.85
2023-05-05T10:00:58.566Z,2.80
2023-05-05T10:03:25.933Z,2.80
2023-05-05T10:06:02.827Z,3.38
2023-05-05T10:08:31.562Z,2.63
2023-05-05T10:13:36.203Z,2.90
2023-05-05T10:16:04.663Z,2.50
2023-05-05T10:18:32.338Z,2.63
2023-05-05T10:21:03.541Z,2.88
2023-05-05T10:23:44.402Z,2.47
2023-05-05T10:26:14.104Z,3.25
2023-05-05T10:29:01.383Z,2.65
2023-05-05T10:31:37.166Z,2.33
2023-05-05T10:34:13.381Z,3.20
2023-05-05T10:36:43.023Z,3.00
2023-05-05T10:39:15.202Z,3.05
2023-05-05T10:41:42.159Z,3.35
2023-05-05T10:44:10.867Z,2.95
2023-05-05T10:49:40.503Z,2.40
2023-05-05T10:52:10.228Z,2.80
2023-05-05T10:54:38.325Z,3.70
2023-05-05T10:57:09.749Z,3.33
2023-05-05T10:59:36.821Z,2.67
2023-05-05T11:02:23.589Z,3.03
2023-05-05T11:05:15.075Z,2.90
2023-05-05T11:07:43.113Z,2.97
2023-05-05T11:10:14.270Z,2.45
2023-05-05T11:13:12.664Z,2.67
2023-05-05T11:15:41.877Z,2.58
2023-05-05T11:18:27.920Z,2.10
2023-05-05T11:20:57.456Z,2.53
2023-05-05T11:23:24.244Z,2.30
2023-05-05T11:25:53.717Z,2.58
2023-05-05T11:28:31.351Z,2.95
2023-05-05T11:31:00.953Z,2.85
2023-05-05T11:33:30.684Z,2.58
2023-05-05T11:36:13.247Z,2.42
2023-05-05T11:39:00.160Z,2.45
2023-05-05T11:41:32.849Z,2.20
2023-05-05T11:44:12.516Z,2.45
2023-05-05T11:46:51.348Z,2.55
2023-05-05T11:49:32.419Z,2.63
2023-05-05T11:52:04.495Z,2.70
2023-05-05T11:54:31.830Z,2.53
2023-05-05T11:57:02.013Z,2.53
2023-05-05T11:59:28.667Z,2.60
2023-05-05T12:01:55.346Z,2.92
2023-05-05T12:04:21.972Z,2.80
2023-05-05T12:06:51.022Z,2.80
2023-05-05T12:09:22.198Z,2.67
2023-05-05T12:11:52.367Z,2.80
2023-05-05T12:14:22.052Z,2.80
2023-05-05T12:17:03.114Z,2.63
2023-05-05T12:19:33.136Z,2.53
2023-05-05T12:22:01.270Z,2.80
2023-05-05T12:24:28.361Z,2.53
2023-05-05T12:26:58.033Z,2.63
2023-05-05T12:29:25.848Z,2.80
2023-05-05T12:31:52.546Z,2.90
2023-05-05T12:34:19.474Z,2.78
2023-05-05T12:36:49.011Z,2.72
2023-05-05T12:39:15.641Z,2.50
2023-05-05T12:41:44.998Z,2.78
2023-05-05T12:44:16.621Z,2.33
2023-05-05T12:46:53.042Z,2.60
2023-05-05T12:49:19.611Z,2.00
2023-05-05T12:51:58.790Z,2.30
2023-05-05T12:54:25.379Z,2.15
2023-05-05T12:56:54.357Z,2.55
2023-05-05T12:59:24.198Z,2.72
2023-05-05T13:01:54.208Z,2.20
2023-05-05T13:04:30.262Z,2.53
2023-05-05T13:07:16.537Z,2.83
2023-05-05T13:09:43.621Z,2.70
2023-05-05T13:12:12.771Z,2.05
2023-05-05T13:14:40.876Z,2.60
2023-05-05T13:17:07.675Z,2.50
2023-05-05T13:19:35.824Z,2.53
2023-05-05T13:22:02.426Z,2.78
2023-05-05T13:24:42.114Z,2.67
2023-05-05T13:27:14.267Z,2.22
2023-05-05T13:29:43.774Z,2.97
2023-05-05T13:32:10.436Z,2.90
2023-05-05T13:34:39.086Z,2.72
2023-05-05T13:37:06.069Z,2.30
2023-05-05T13:39:35.531Z,2.30
2023-05-05T13:42:04.462Z,2.45
2023-05-05T13:44:33.350Z,2.90
2023-05-05T13:46:59.969Z,2.75
2023-05-05T13:49:27.036Z,2.65
2023-05-05T13:51:53.785Z,2.28
2023-05-05T13:54:20.397Z,2.58
2023-05-05T13:56:49.377Z,2.50
2023-05-05T13:59:18.149Z,2.10
2023-05-05T14:01:47.175Z,2.60
2023-05-05T14:04:13.764Z,3.10
2023-05-05T14:06:40.430Z,2.83
2023-05-05T14:09:09.027Z,2.60
2023-05-05T14:11:37.800Z,2.75
2023-05-05T14:14:06.960Z,2.53
2023-05-05T14:16:35.915Z,2.50
2023-05-05T14:19:05.233Z,2.53
2023-05-05T14:21:34.061Z,2.55
2023-05-05T14:24:02.885Z,2.63
2023-05-05T14:26:31.527Z,2.70
2023-05-05T14:28:58.088Z,2.50
2023-05-05T14:31:25.066Z,2.65
2023-05-05T14:33:51.738Z,2.30
2023-05-05T14:36:20.667Z,2.42
2023-05-05T14:38:55.047Z,2.63
2023-05-05T14:41:21.707Z,2.50
2023-05-05T14:43:50.534Z,2.75
2023-05-05T14:46:19.409Z,2.20
2023-05-05T14:48:47.321Z,2.10
2023-05-05T14:51:16.424Z,2.22
2023-05-05T14:53:43.020Z,1.98
2023-05-05T14:56:11.850Z,2.25
2023-05-05T14:58:38.458Z,2.10
2023-05-05T15:01:05.331Z,2.00
2023-05-05T15:03:32.356Z,2.13
2023-05-05T15:05:58.976Z,2.05
2023-05-05T15:08:25.695Z,1.88
2023-05-05T15:10:54.509Z,1.92
2023-05-05T15:13:24.094Z,2.10
2023-05-05T15:15:51.375Z,1.88
2023-05-05T15:18:20.386Z,1.85
2023-05-05T15:20:46.967Z,2.13
2023-05-05T15:23:13.559Z,2.15
2023-05-05T15:25:40.137Z,1.70
2023-05-05T15:28:08.909Z,2.25
2023-05-05T15:30:37.860Z,2.28
2023-05-05T15:33:04.605Z,2.40
2023-05-05T15:35:31.335Z,1.98
2023-05-05T15:37:58.064Z,2.35
2023-05-05T15:40:27.431Z,2.30
2023-05-05T15:42:56.739Z,2.00
2023-05-05T15:45:23.680Z,1.98
2023-05-05T15:47:53.739Z,2.25
2023-05-05T15:50:20.678Z,2.33
2023-05-05T15:52:49.339Z,2.45
2023-05-05T15:55:18.895Z,2.15
2023-05-05T15:57:45.519Z,2.05
2023-05-05T16:00:12.655Z,2.22
2023-05-05T16:02:39.685Z,2.10
2023-05-05T16:05:09.461Z,2.25
2023-05-05T16:07:38.627Z,1.90
2023-05-05T16:10:08.280Z,2.28
2023-05-05T16:12:37.412Z,2.05
2023-05-05T16:15:07.143Z,2.10
2023-05-05T16:17:34.024Z,2.33
2023-05-05T16:20:00.752Z,2.83
2023-05-05T16:22:30.110Z,2.00
2023-05-05T16:24:59.072Z,2.13
2023-05-05T16:27:27.722Z,1.73
2023-05-05T16:32:23.321Z,2.05
2023-05-05T16:34:52.255Z,2.22
2023-05-05T16:37:21.090Z,1.98
2023-05-05T16:39:47.750Z,2.60
2023-05-05T16:42:14.297Z,1.95
2023-05-05T16:44:43.318Z,2.40
2023-05-05T16:47:12.964Z,2.22
2023-05-05T16:49:41.823Z,2.45
2023-05-05T16:52:13.163Z,2.17
2023-05-05T16:54:39.730Z,2.05
2023-05-05T16:57:11.141Z,2.38
2023-05-05T16:59:37.683Z,1.90
2023-05-05T17:02:04.412Z,2.00
2023-05-05T17:04:31.002Z,1.90
2023-05-05T17:06:59.607Z,1.95
2023-05-05T17:09:27.332Z,1.90
2023-05-05T17:11:56.520Z,1.80
2023-05-05T17:14:26.557Z,2.00
2023-05-05T17:16:54.389Z,1.80
2023-05-05T17:19:20.948Z,1.90
2023-05-05T17:21:50.268Z,1.70
2023-05-05T17:24:19.211Z,2.67
2023-05-05T17:26:46.217Z,1.83
2023-05-05T17:29:13.240Z,2.30
2023-05-05T17:31:42.941Z,2.20
2023-05-05T17:34:15.511Z,2.70
2023-05-05T17:36:46.804Z,2.22
2023-05-05T17:39:13.721Z,2.15
2023-05-05T17:41:42.046Z,2.40
2023-05-05T17:44:08.641Z,2.28
2023-05-05T17:46:38.378Z,2.17
2023-05-05T17:49:05.171Z,2.05
2023-05-05T17:51:34.326Z,2.33
2023-05-05T17:54:00.866Z,2.40
2023-05-05T17:56:30.455Z,1.90
2023-05-05T17:59:00.718Z,2.65
2023-05-05T18:01:27.298Z,2.17
2023-05-05T18:03:56.099Z,2.30
2023-05-05T18:08:49.418Z,2.70
2023-05-05T18:11:19.306Z,2.72
2023-05-05T18:13:48.200Z,2.47
2023-05-05T18:18:46.004Z,2.40
2023-05-05T18:21:12.597Z,2.22
2023-05-05T18:23:39.991Z,2.85
2023-05-05T18:26:11.153Z,2.90
2023-05-05T18:28:37.713Z,3.10
2023-05-05T18:31:04.278Z,3.13
2023-05-05T18:33:31.094Z,3.58
2023-05-05T18:35:57.927Z,2.78
2023-05-05T18:38:24.792Z,2.88
2023-05-05T18:40:57.058Z,2.65
2023-05-05T18:43:25.899Z,2.78
2023-05-05T18:48:21.494Z,2.13
2023-05-05T18:50:48.993Z,2.80
2023-05-05T18:53:17.846Z,2.05
2023-05-05T18:58:13.875Z,2.53
2023-05-05T19:00:40.482Z,2.55
2023-05-05T19:03:09.261Z,2.22
2023-05-05T19:05:36.090Z,2.38
2023-05-05T19:08:02.669Z,2.50
2023-05-05T19:10:31.363Z,2.38
2023-05-05T19:13:00.957Z,2.50
2023-05-05T19:15:27.634Z,2.17
2023-05-05T19:17:54.687Z,2.40
2023-05-05T19:20:24.273Z,2.70
2023-05-05T19:22:53.405Z,2.08
2023-05-05T19:25:19.979Z,2.40
2023-05-05T19:27:51.317Z,2.72
2023-05-05T19:30:20.620Z,2.80
2023-05-05T19:32:49.687Z,2.78
2023-05-05T19:35:18.887Z,2.50
2023-05-05T19:37:47.976Z,3.05
2023-05-05T19:40:14.538Z,2.40
2023-05-05T19:42:43.509Z,2.03
2023-05-05T19:47:39.093Z,2.10
2023-05-05T19:50:06.429Z,2.47
2023-05-05T19:52:36.781Z,3.63
2023-05-05T19:55:10.342Z,2.10
2023-05-05T19:57:36.960Z,2.38
2023-05-05T20:00:06.714Z,2.42
2023-05-05T20:02:37.340Z,2.65
2023-05-05T20:05:07.436Z,2.28
2023-05-05T20:07:41.673Z,2.13
2023-05-05T20:10:13.106Z,2.45
2023-05-05T20:12:48.289Z,2.03
2023-05-05T20:15:19.487Z,2.20
2023-05-05T20:17:51.474Z,2.33
2023-05-05T20:20:22.583Z,2.17
2023-05-05T20:22:51.427Z,2.17
2023-05-05T20:27:49.525Z,2.70
2023-05-05T20:30:16.171Z,2.67
2023-05-05T20:32:47.462Z,2.60
2023-05-05T20:35:18.866Z,2.20
2023-05-05T20:37:47.667Z,2.30
2023-05-05T20:40:16.973Z,2.20
2023-05-05T20:42:46.057Z,2.65
2023-05-05T20:45:15.278Z,2.20
2023-05-05T20:47:46.817Z,2.38
2023-05-05T20:50:13.700Z,2.10
2023-05-05T20:52:42.458Z,2.78
2023-05-05T20:55:09.193Z,2.13
2023-05-05T20:57:35.819Z,2.47
2023-05-05T21:00:02.569Z,2.10
2023-05-05T21:02:29.758Z,2.60
2023-05-05T21:05:02.409Z,2.78
2023-05-05T21:07:31.322Z,2.55
2023-05-05T21:09:58.124Z,3.05
2023-05-05T21:12:28.312Z,3.53
2023-05-05T21:14:58.746Z,3.28
2023-05-05T21:17:26.832Z,2.90
2023-05-05T21:19:53.911Z,3.13
2023-05-05T21:22:21.282Z,3.05
2023-05-05T21:24:48.232Z,2.47
2023-05-05T21:27:18.466Z,2.80
2023-05-05T21:29:45.039Z,3.03
2023-05-05T21:32:12.020Z,2.83
2023-05-05T21:34:41.600Z,2.90
2023-05-05T21:37:08.460Z,3.17
2023-05-05T21:39:35.415Z,3.03
2023-05-05T21:42:02.028Z,2.85
2023-05-05T21:44:28.645Z,3.15
2023-05-05T21:46:58.634Z,3.20
2023-05-05T21:49:29.974Z,2.95
2023-05-05T21:51:58.954Z,3.30
2023-05-05T21:57:00.199Z,2.72
2023-05-05T21:59:28.735Z,2.78
2023-05-05T22:01:57.884Z,3.67
2023-05-05T22:04:24.521Z,3.78
2023-05-05T22:06:56.599Z,3.58
2023-05-05T22:09:23.276Z,3.15
2023-05-05T22:11:50.821Z,3.45
2023-05-05T22:14:17.514Z,3.47
2023-05-05T22:16:46.614Z,3.60
2023-05-05T22:19:16.405Z,3.28
2023-05-05T22:21:43.386Z,3.70
2023-05-05T22:24:12.352Z,3.00
2023-05-05T22:29:12.831Z,3.30
2023-05-05T22:31:39.515Z,3.13
2023-05-05T22:34:08.655Z,3.05
2023-05-05T22:36:35.338Z,3.00
2023-05-05T22:39:01.995Z,3.03
2023-05-05T22:41:33.410Z,3.30
2023-05-05T22:44:02.208Z,3.38
2023-05-05T22:46:31.016Z,4.28
2023-05-05T22:49:00.072Z,3.10
2023-05-05T22:51:29.378Z,3.75
2023-05-05T22:53:55.993Z,3.17
2023-05-05T22:56:22.657Z,3.58
2023-05-05T22:58:52.203Z,3.28
2023-05-05T23:01:21.082Z,3.15
2023-05-05T23:03:47.828Z,4.03
2023-05-05T23:06:14.526Z,4.55
2023-05-05T23:08:43.382Z,3.47
2023-05-05T23:11:09.996Z,3.95
2023-05-05T23:13:39.045Z,3.67
2023-05-05T23:16:08.093Z,4.00
2023-05-05T23:18:36.362Z,3.97
2023-05-05T23:21:05.679Z,4.35
2023-05-05T23:23:34.724Z,3.60
2023-05-05T23:26:01.333Z,4.15
2023-05-05T23:28:27.901Z,4.50
2023-05-05T23:30:54.555Z,4.15
2023-05-05T23:33:23.385Z,4.18
2023-05-05T23:35:55.126Z,3.92
2023-05-05T23:38:24.115Z,4.05
2023-05-05T23:43:24.972Z,3.85
2023-05-05T23:45:53.734Z,4.00
2023-05-05T23:50:47.128Z,4.10
2023-05-05T23:53:17.806Z,3.85
2023-05-05T23:55:44.401Z,4.10
2023-05-05T23:58:11.009Z,4.18
